• Join FlightAware (Why Join?)
  • Login
  • US Flag 
11:36PM EDT


 

Airport Tracker/Info


-or-


 

Live Flight TrackerFlight Track Log ✈ FLG3861 ✈ 10-Nov-2013 ✈ KDTW - KBGM

Flight Track Log - Related Links

Times and Time Zones

All times are in EST time to prevent confusion due to time zone crossing. See the FLG3861 flight status page for this flight to view local times or setup timezone preferences in your user account.

Time Position Orientation Groundspeed Altitude Reporting Facility
EST Latitude Longitude Course Direction KTS MPH feet Rate Location/Type
09:53PM 42.2061 -83.3672 173° South 157 181 1,500  Level Cleveland Center
09:54PM 42.1917 -83.3650 173° South 169 194 2,200 2,340 Climbing Cleveland Center
09:55PM 42.1417 -83.3608 176° South 212 244 4,400 2,100 Climbing Cleveland Center
09:56PM 42.0767 -83.3319 162° South 282 325 6,300 1,980 Climbing Cleveland Center
09:57PM 42.0828 -83.2289 85° East 286 329 8,500 2,040 Climbing Cleveland Center
09:58PM 42.1244 -83.1211 62° Northeast 309 356 10,600 1,980 Climbing Cleveland Center
09:59PM 42.1683 -83.0008 64° Northeast 358 412 12,600 1,980 Climbing Cleveland Center
10:00PM 42.2017 -82.8689 71° East 386 444 14,700 1,560 Climbing Cleveland Center
10:01PM 42.2033 -82.7147 89° East 413 475 15,900 1,080 Climbing Cleveland Center
10:02PM 42.2056 -82.5522 89° East 431 496 17,000 900 Climbing Cleveland Center
10:03PM 42.2058 -82.3831 90° East 447 514 17,800 900 Climbing Cleveland Center
10:04PM 42.2075 -82.2083 89° East 463 533 18,900 1,020 Climbing Cleveland Center
10:05PM 42.2094 -82.0186 89° East 473 544 20,000 1,080 Climbing Cleveland Center
10:06PM 42.2092 -81.8367 90° East 478 550 21,200 1,080 Climbing Cleveland Center
10:07PM 42.2097 -81.6517 90° East 485 558 22,300 1,020 Climbing Cleveland Center
10:08PM 42.2103 -81.4669 90° East 487 560 23,400 1,020 Climbing Cleveland Center
10:09PM 42.2108 -81.2817 90° East 488 562 24,400 840 Climbing Cleveland Center
10:10PM 42.2100 -81.0936 90° East 494 568 25,200 780 Climbing Cleveland Center
10:11PM 42.2100 -80.8694 90° East 504 580 26,100 840 Climbing Cleveland Center
10:12PM 42.2097 -80.6775 90° East 507 583 27,000 780 Climbing Cleveland Center
10:13PM 42.2147 -80.4847 88° East 508 585 27,800 660 Climbing Cleveland Center
10:14PM 42.2178 -80.2886 89° East 516 594 28,400 480 Climbing Cleveland Center
10:15PM 42.2214 -80.0906 89° East 522 601 28,900 240 Climbing Cleveland Center
10:16PM 42.2236 -79.9058 89° East 528 608 29,000  Climbing Cleveland Center
10:17PM 42.2261 -79.7039 89° East 537 618 28,900 -300 Descending Cleveland Center
10:18PM 42.2281 -79.4967 89° East 549 632 28,400 -480 Descending Cleveland Center
10:19PM 42.2308 -79.2447 89° East 559 643 28,000 -240 Descending Cleveland Center
10:20PM 42.2319 -79.0369 90° East 556 640 28,000 -120 Level Cleveland Center
10:21PM 42.2336 -78.8308 89° East 555 639 27,800 -900 Descending Cleveland Center
10:22PM 42.2364 -78.6267 89° East 548 631 26,200 -1,620 Descending Cleveland Center
10:23PM 42.2358 -78.4214 90° East 549 632 24,600 -1,620 Descending Cleveland Center
10:24PM 42.2347 -78.2211 90° East 543 625 23,000 -1,620 Descending Cleveland Center
10:25PM 42.2333 -78.0275 90° East 527 606 21,400 -1,620 Descending Cleveland Center
10:26PM 42.2322 -77.8417 90° East 509 586 19,800 -1,740 Descending Cleveland Center
10:27PM 42.2311 -77.6297 90° East 484 557 17,900 -1,620 Descending Cleveland Center
10:28PM 42.2306 -77.4614 90° East 462 532 16,500 -1,500 Descending Cleveland Center
10:29PM 42.2294 -77.2981 90° East 445 512 14,900 -1,380 Descending Cleveland Center
10:30PM 42.2264 -77.1408 91° East 428 493 13,700 -1,260 Descending Cleveland Center
10:31PM 42.2253 -76.9919 91° East 405 466 12,400 -1,260 Descending Cleveland Center
10:32PM 42.2244 -76.8547 90° East 375 432 11,200 -1,080 Descending Cleveland Center
10:33PM 42.2222 -76.7275 91° East 347 399 10,300 -960 Descending Cleveland Center
10:35PM 42.2194 -76.6103 92° East 316 364 9,300 -840 Descending Cleveland Center
10:36PM 42.2175 -76.4972 91° East 306 352 8,600 -960 Descending Cleveland Center
10:37PM 42.2161 -76.3731 91° East 302 348 7,400 -1,140 Descending Cleveland Center
10:38PM 42.2139 -76.2614 92° East 300 345 6,400 -1,020 Descending Cleveland Center
10:39PM 42.1906 -76.1603 107° East 303 349 5,400 -840 Descending Cleveland Center
10:40PM 42.1281 -76.1000 144° Southeast 281 323 4,700 -900 Descending Cleveland Center
10:41PM 42.0664 -76.0450 146° Southeast 250 288 3,600 -720 Descending New York Center
10:42PM 42.0758 -75.9733 80° East 195 224 3,300 -300 Descending New York Center
10:43PM 42.1072 -75.9253 49° Northeast 152 175 3,100 -180 Descending New York Center
10:44PM 42.1425 -75.9253 360° North 112 129 3,000 -360 Descending New York Center
10:45PM 42.1706 -75.9500 327° Northwest 101 116 2,400 -540 Descending New York Center
10:46PM 42.1992 -75.9606 345° North 101 116 2,000 -420 Descending New York Center